Pamplico, SC

7:55 PM EDT on April 18, 2015 (GMT -0400)
Marion County | | Change Station
CLOSE
Current Station
Airport
Location: Marion,
Elevation: 92 ft
Nearby Weather Stations

Elev 92 ft 34.18 °N, 79.33 °W | Updated 13 seconds ago

Partly Cloudy
Partly Cloudy
72 °F
Feels Like 72 °F
N
5
Wind Variable Wind from SSE

Today
High -- | Low -- °F
--% Chance of Precip.
Yesterday
High -- | Low -- °F
Precip. -- in
6:44 AM 7:51 PM
New Moon, 0% visible
Pressure 29.95 in
Visibility 10.0 miles
Clouds Scattered Clouds 2200 ft
Scattered Clouds 2600 ft
Dew Point 66 °F
Humidity 83%
Rainfall 1.09 in
Snow Depth Not available.
UV 0 out of 12
Pollen 7.30 out of 12
Air Quality Not available.
Flu Activity Local Activity
METAR KMAO 182355Z AUTO 16004KT 10SM SCT022 SCT026 22/19 A2995 RMK AO2

More Conditions Fewer Conditions

Pressure 29.95 in
Visibility 10.0 miles
Clouds Scattered Clouds 2200 ft
Scattered Clouds 2600 ft
Dew Point 66 °F
Humidity 83%
Rainfall 1.09 in
Snow Depth Not available.
UV 0 out of 12
Pollen 7.30 out of 12
Air Quality Not available.
Flu Activity Local Activity
METAR KMAO 182355Z AUTO 16004KT 10SM SCT022 SCT026 22/19 A2995 RMK AO2

More Conditions Fewer Conditions

10-Day Weather Forecast

Almanac

Astronomy

Apr. 18, 2015 Rise Set
Actual Time
Civil Twilight
Nautical Twilight
Astronomical Twilight
Moon
Length of Visible Light
Length of Day
Tomorrow will be .
, % of the Moon is Illuminated

Today's Extremes

State Highs State Lows

Community

WunderPhotos

Upload Photos

1,814,580 photos uploaded!

WunderBlogs® & News

Nearby

Air Quality

  Air Quality AQ Index Pollutant
Not available.

Snow Depth

Station Depth Elevation

Earthquake Activity

City Distance Mag. Time & Date
Minimum magnitude displayed is 2.5.

Coastal Water Temperatures

Place Temperature

Stations

Nearby Weather Stations

Station Location Temp. Windchill Dew Point Humidity Wind Precip. Elev Updated Type